sensor_id;sensor_type;location;lat;lon;timestamp;P1;durP1;ratioP1;P2;durP2;ratioP2
57848;SDS011;68645;44.762;21.516;2023-12-28T00:01:22;232.32;;;130.30;;
57848;SDS011;68645;44.762;21.516;2023-12-28T00:03:48;248.32;;;129.15;;
57848;SDS011;68645;44.762;21.516;2023-12-28T00:06:14;199.95;;;108.45;;
57848;SDS011;68645;44.762;21.516;2023-12-28T00:08:41;147.93;;;80.28;;
57848;SDS011;68645;44.762;21.516;2023-12-28T00:11:07;132.40;;;73.57;;
57848;SDS011;68645;44.762;21.516;2023-12-28T00:13:33;159.32;;;87.97;;
57848;SDS011;68645;44.762;21.516;2023-12-28T00:15:59;174.68;;;107.65;;
57848;SDS011;68645;44.762;21.516;2023-12-28T00:18:25;181.20;;;104.43;;
57848;SDS011;68645;44.762;21.516;2023-12-28T00:20:52;204.40;;;104.03;;
57848;SDS011;68645;44.762;21.516;2023-12-28T00:23:18;112.80;;;65.47;;
57848;SDS011;68645;44.762;21.516;2023-12-28T00:25:47;116.15;;;63.33;;
57848;SDS011;68645;44.762;21.516;2023-12-28T00:28:13;107.18;;;60.03;;
57848;SDS011;68645;44.762;21.516;2023-12-28T00:30:40;109.22;;;58.38;;
57848;SDS011;68645;44.762;21.516;2023-12-28T00:33:08;94.55;;;53.80;;
57848;SDS011;68645;44.762;21.516;2023-12-28T00:35:34;111.05;;;62.53;;
57848;SDS011;68645;44.762;21.516;2023-12-28T00:38:00;99.30;;;57.15;;
57848;SDS011;68645;44.762;21.516;2023-12-28T00:40:26;103.57;;;59.30;;
57848;SDS011;68645;44.762;21.516;2023-12-28T00:42:52;90.85;;;53.47;;
57848;SDS011;68645;44.762;21.516;2023-12-28T00:45:18;115.38;;;62.72;;
57848;SDS011;68645;44.762;21.516;2023-12-28T00:47:45;75.28;;;45.67;;
57848;SDS011;68645;44.762;21.516;2023-12-28T00:50:11;75.85;;;45.58;;
57848;SDS011;68645;44.762;21.516;2023-12-28T00:52:37;69.22;;;41.58;;
57848;SDS011;68645;44.762;21.516;2023-12-28T00:55:04;72.72;;;41.60;;
57848;SDS011;68645;44.762;21.516;2023-12-28T00:57:30;78.50;;;45.67;;
57848;SDS011;68645;44.762;21.516;2023-12-28T00:59:56;83.07;;;44.75;;
57848;SDS011;68645;44.762;21.516;2023-12-28T01:02:22;82.30;;;48.17;;
57848;SDS011;68645;44.762;21.516;2023-12-28T01:04:48;68.15;;;42.13;;
57848;SDS011;68645;44.762;21.516;2023-12-28T01:07:14;87.78;;;53.33;;
57848;SDS011;68645;44.762;21.516;2023-12-28T01:09:40;75.03;;;43.17;;
57848;SDS011;68645;44.762;21.516;2023-12-28T01:12:07;70.60;;;41.38;;
57848;SDS011;68645;44.762;21.516;2023-12-28T01:14:33;70.05;;;42.15;;
57848;SDS011;68645;44.762;21.516;2023-12-28T01:16:59;69.55;;;40.63;;
57848;SDS011;68645;44.762;21.516;2023-12-28T01:19:25;72.75;;;40.92;;
57848;SDS011;68645;44.762;21.516;2023-12-28T01:21:51;101.10;;;54.47;;
57848;SDS011;68645;44.762;21.516;2023-12-28T01:24:17;110.60;;;55.58;;
57848;SDS011;68645;44.762;21.516;2023-12-28T01:26:43;74.50;;;41.72;;
57848;SDS011;68645;44.762;21.516;2023-12-28T01:29:10;91.47;;;51.90;;
57848;SDS011;68645;44.762;21.516;2023-12-28T01:31:36;59.20;;;36.05;;
57848;SDS011;68645;44.762;21.516;2023-12-28T01:34:04;72.72;;;42.50;;
57848;SDS011;68645;44.762;21.516;2023-12-28T01:36:30;75.22;;;42.58;;
57848;SDS011;68645;44.762;21.516;2023-12-28T01:38:56;68.28;;;41.55;;
57848;SDS011;68645;44.762;21.516;2023-12-28T01:41:22;65.03;;;38.95;;
57848;SDS011;68645;44.762;21.516;2023-12-28T01:43:48;70.95;;;43.40;;
57848;SDS011;68645;44.762;21.516;2023-12-28T01:46:18;67.93;;;39.28;;
57848;SDS011;68645;44.762;21.516;2023-12-28T01:48:45;64.28;;;38.42;;
57848;SDS011;68645;44.762;21.516;2023-12-28T01:51:13;66.75;;;40.15;;
57848;SDS011;68645;44.762;21.516;2023-12-28T01:53:40;59.65;;;35.67;;
57848;SDS011;68645;44.762;21.516;2023-12-28T01:56:06;59.65;;;35.40;;
57848;SDS011;68645;44.762;21.516;2023-12-28T01:58:33;65.32;;;39.30;;
57848;SDS011;68645;44.762;21.516;2023-12-28T02:01:01;81.10;;;46.72;;
57848;SDS011;68645;44.762;21.516;2023-12-28T02:03:27;79.18;;;47.65;;
57848;SDS011;68645;44.762;21.516;2023-12-28T02:05:53;73.43;;;45.58;;
57848;SDS011;68645;44.762;21.516;2023-12-28T02:08:20;84.72;;;46.85;;
57848;SDS011;68645;44.762;21.516;2023-12-28T02:10:47;68.40;;;37.78;;
57848;SDS011;68645;44.762;21.516;2023-12-28T02:13:13;77.70;;;44.15;;
57848;SDS011;68645;44.762;21.516;2023-12-28T02:15:40;87.30;;;48.08;;
57848;SDS011;68645;44.762;21.516;2023-12-28T02:18:16;82.20;;;48.35;;
57848;SDS011;68645;44.762;21.516;2023-12-28T02:20:44;71.65;;;42.10;;
57848;SDS011;68645;44.762;21.516;2023-12-28T02:23:11;71.82;;;44.22;;
57848;SDS011;68645;44.762;21.516;2023-12-28T02:25:37;86.80;;;47.35;;
57848;SDS011;68645;44.762;21.516;2023-12-28T02:28:04;85.05;;;48.88;;
57848;SDS011;68645;44.762;21.516;2023-12-28T02:30:30;101.13;;;52.30;;
57848;SDS011;68645;44.762;21.516;2023-12-28T02:35:40;53.95;;;31.73;;
57848;SDS011;68645;44.762;21.516;2023-12-28T02:38:11;52.95;;;31.58;;
57848;SDS011;68645;44.762;21.516;2023-12-28T02:40:38;53.85;;;32.30;;
57848;SDS011;68645;44.762;21.516;2023-12-28T02:43:05;58.63;;;33.95;;
57848;SDS011;68645;44.762;21.516;2023-12-28T02:45:32;65.43;;;37.33;;
57848;SDS011;68645;44.762;21.516;2023-12-28T02:47:58;49.47;;;30.38;;
57848;SDS011;68645;44.762;21.516;2023-12-28T02:50:24;51.47;;;28.38;;
57848;SDS011;68645;44.762;21.516;2023-12-28T02:52:50;45.25;;;26.58;;
57848;SDS011;68645;44.762;21.516;2023-12-28T02:55:16;61.03;;;38.05;;
57848;SDS011;68645;44.762;21.516;2023-12-28T02:57:43;58.90;;;35.40;;
57848;SDS011;68645;44.762;21.516;2023-12-28T03:00:10;60.53;;;36.72;;
57848;SDS011;68645;44.762;21.516;2023-12-28T03:02:37;60.60;;;37.47;;
57848;SDS011;68645;44.762;21.516;2023-12-28T03:05:04;62.25;;;38.53;;
57848;SDS011;68645;44.762;21.516;2023-12-28T03:07:31;61.72;;;37.50;;
57848;SDS011;68645;44.762;21.516;2023-12-28T03:09:57;44.88;;;26.65;;
57848;SDS011;68645;44.762;21.516;2023-12-28T03:12:24;60.78;;;33.75;;
57848;SDS011;68645;44.762;21.516;2023-12-28T03:14:50;66.97;;;35.70;;
57848;SDS011;68645;44.762;21.516;2023-12-28T03:17:16;68.63;;;38.65;;
57848;SDS011;68645;44.762;21.516;2023-12-28T03:19:42;57.53;;;31.05;;
57848;SDS011;68645;44.762;21.516;2023-12-28T03:22:08;47.72;;;29.50;;
57848;SDS011;68645;44.762;21.516;2023-12-28T03:24:36;62.45;;;35.97;;
57848;SDS011;68645;44.762;21.516;2023-12-28T03:27:03;55.20;;;34.35;;
57848;SDS011;68645;44.762;21.516;2023-12-28T03:29:29;47.88;;;28.08;;
57848;SDS011;68645;44.762;21.516;2023-12-28T03:31:55;48.67;;;31.15;;
57848;SDS011;68645;44.762;21.516;2023-12-28T03:34:21;51.45;;;33.35;;
57848;SDS011;68645;44.762;21.516;2023-12-28T03:36:48;60.90;;;37.10;;
57848;SDS011;68645;44.762;21.516;2023-12-28T03:39:14;53.72;;;31.10;;
57848;SDS011;68645;44.762;21.516;2023-12-28T03:41:40;52.58;;;32.88;;
57848;SDS011;68645;44.762;21.516;2023-12-28T03:44:06;40.90;;;25.40;;
57848;SDS011;68645;44.762;21.516;2023-12-28T03:46:32;46.08;;;27.70;;
57848;SDS011;68645;44.762;21.516;2023-12-28T03:48:58;35.78;;;21.23;;
57848;SDS011;68645;44.762;21.516;2023-12-28T03:51:25;25.85;;;16.17;;
57848;SDS011;68645;44.762;21.516;2023-12-28T03:53:51;23.88;;;14.40;;
57848;SDS011;68645;44.762;21.516;2023-12-28T03:56:21;23.48;;;13.45;;
57848;SDS011;68645;44.762;21.516;2023-12-28T03:58:47;22.27;;;12.03;;
57848;SDS011;68645;44.762;21.516;2023-12-28T04:01:14;80.57;;;45.05;;
57848;SDS011;68645;44.762;21.516;2023-12-28T04:03:40;196.98;;;121.25;;
57848;SDS011;68645;44.762;21.516;2023-12-28T04:06:06;216.25;;;135.38;;
57848;SDS011;68645;44.762;21.516;2023-12-28T04:08:32;129.80;;;81.25;;
57848;SDS011;68645;44.762;21.516;2023-12-28T04:10:59;122.57;;;76.65;;
57848;SDS011;68645;44.762;21.516;2023-12-28T04:13:25;125.40;;;73.38;;
57848;SDS011;68645;44.762;21.516;2023-12-28T04:15:51;128.63;;;74.28;;
57848;SDS011;68645;44.762;21.516;2023-12-28T04:18:17;117.55;;;67.00;;
57848;SDS011;68645;44.762;21.516;2023-12-28T04:20:43;114.88;;;65.22;;
57848;SDS011;68645;44.762;21.516;2023-12-28T04:23:13;71.63;;;42.65;;
57848;SDS011;68645;44.762;21.516;2023-12-28T04:25:39;45.80;;;26.08;;
57848;SDS011;68645;44.762;21.516;2023-12-28T04:28:06;59.97;;;31.35;;
57848;SDS011;68645;44.762;21.516;2023-12-28T04:30:32;66.18;;;35.63;;
57848;SDS011;68645;44.762;21.516;2023-12-28T04:32:58;78.00;;;45.97;;
57848;SDS011;68645;44.762;21.516;2023-12-28T04:35:24;73.47;;;41.33;;
57848;SDS011;68645;44.762;21.516;2023-12-28T04:37:50;74.90;;;41.05;;
57848;SDS011;68645;44.762;21.516;2023-12-28T04:40:16;78.78;;;44.70;;
57848;SDS011;68645;44.762;21.516;2023-12-28T04:42:43;86.68;;;49.05;;
57848;SDS011;68645;44.762;21.516;2023-12-28T04:45:09;81.18;;;47.33;;
57848;SDS011;68645;44.762;21.516;2023-12-28T04:47:36;79.22;;;42.80;;
57848;SDS011;68645;44.762;21.516;2023-12-28T04:50:05;63.10;;;37.67;;
57848;SDS011;68645;44.762;21.516;2023-12-28T04:52:31;48.50;;;27.70;;
57848;SDS011;68645;44.762;21.516;2023-12-28T04:54:58;37.75;;;22.02;;
57848;SDS011;68645;44.762;21.516;2023-12-28T04:57:24;39.47;;;24.80;;
57848;SDS011;68645;44.762;21.516;2023-12-28T04:59:51;51.03;;;29.23;;
57848;SDS011;68645;44.762;21.516;2023-12-28T05:02:18;51.75;;;30.95;;
57848;SDS011;68645;44.762;21.516;2023-12-28T05:04:44;57.22;;;31.33;;
57848;SDS011;68645;44.762;21.516;2023-12-28T05:07:10;61.80;;;33.28;;
57848;SDS011;68645;44.762;21.516;2023-12-28T05:09:36;52.08;;;31.15;;
57848;SDS011;68645;44.762;21.516;2023-12-28T05:12:02;59.17;;;33.08;;
57848;SDS011;68645;44.762;21.516;2023-12-28T05:14:28;50.10;;;27.98;;
57848;SDS011;68645;44.762;21.516;2023-12-28T05:16:54;38.70;;;21.90;;
57848;SDS011;68645;44.762;21.516;2023-12-28T05:19:21;45.17;;;26.83;;
57848;SDS011;68645;44.762;21.516;2023-12-28T05:21:47;48.55;;;27.65;;
57848;SDS011;68645;44.762;21.516;2023-12-28T05:24:13;52.25;;;29.55;;
57848;SDS011;68645;44.762;21.516;2023-12-28T05:26:39;53.63;;;32.70;;
57848;SDS011;68645;44.762;21.516;2023-12-28T05:29:05;76.97;;;46.38;;
57848;SDS011;68645;44.762;21.516;2023-12-28T05:31:31;87.72;;;45.83;;
57848;SDS011;68645;44.762;21.516;2023-12-28T05:33:57;80.03;;;41.13;;
57848;SDS011;68645;44.762;21.516;2023-12-28T05:36:24;100.80;;;48.92;;
57848;SDS011;68645;44.762;21.516;2023-12-28T05:38:50;43.10;;;26.80;;
57848;SDS011;68645;44.762;21.516;2023-12-28T05:41:16;35.90;;;20.50;;
57848;SDS011;68645;44.762;21.516;2023-12-28T05:43:43;143.02;;;93.60;;
57848;SDS011;68645;44.762;21.516;2023-12-28T05:46:09;157.45;;;98.55;;
57848;SDS011;68645;44.762;21.516;2023-12-28T05:48:35;103.20;;;64.10;;
57848;SDS011;68645;44.762;21.516;2023-12-28T05:51:01;69.80;;;44.10;;
57848;SDS011;68645;44.762;21.516;2023-12-28T05:53:27;59.38;;;36.03;;
57848;SDS011;68645;44.762;21.516;2023-12-28T05:55:54;56.90;;;32.78;;
57848;SDS011;68645;44.762;21.516;2023-12-28T05:58:20;39.53;;;23.52;;
57848;SDS011;68645;44.762;21.516;2023-12-28T06:00:47;66.13;;;39.05;;
57848;SDS011;68645;44.762;21.516;2023-12-28T06:03:13;50.15;;;31.50;;
57848;SDS011;68645;44.762;21.516;2023-12-28T06:05:39;24.20;;;14.43;;
57848;SDS011;68645;44.762;21.516;2023-12-28T06:08:06;22.25;;;13.27;;
57848;SDS011;68645;44.762;21.516;2023-12-28T06:10:32;58.97;;;35.05;;
57848;SDS011;68645;44.762;21.516;2023-12-28T06:12:58;50.17;;;32.13;;
57848;SDS011;68645;44.762;21.516;2023-12-28T06:15:24;76.72;;;42.25;;
57848;SDS011;68645;44.762;21.516;2023-12-28T06:17:50;72.07;;;41.72;;
57848;SDS011;68645;44.762;21.516;2023-12-28T06:20:17;48.25;;;29.15;;
57848;SDS011;68645;44.762;21.516;2023-12-28T06:22:44;35.55;;;20.23;;
57848;SDS011;68645;44.762;21.516;2023-12-28T06:25:14;34.80;;;20.92;;
57848;SDS011;68645;44.762;21.516;2023-12-28T06:27:40;64.53;;;33.42;;
57848;SDS011;68645;44.762;21.516;2023-12-28T06:30:06;68.53;;;41.17;;
57848;SDS011;68645;44.762;21.516;2023-12-28T06:32:32;43.38;;;27.23;;
57848;SDS011;68645;44.762;21.516;2023-12-28T06:34:58;30.08;;;17.13;;
57848;SDS011;68645;44.762;21.516;2023-12-28T06:37:25;41.85;;;26.17;;
57848;SDS011;68645;44.762;21.516;2023-12-28T06:39:51;34.83;;;20.65;;
57848;SDS011;68645;44.762;21.516;2023-12-28T06:42:17;40.88;;;24.83;;
57848;SDS011;68645;44.762;21.516;2023-12-28T06:44:43;43.90;;;27.38;;
57848;SDS011;68645;44.762;21.516;2023-12-28T06:47:09;46.78;;;28.00;;
57848;SDS011;68645;44.762;21.516;2023-12-28T06:49:35;45.88;;;29.55;;
57848;SDS011;68645;44.762;21.516;2023-12-28T06:52:01;45.95;;;31.85;;
57848;SDS011;68645;44.762;21.516;2023-12-28T06:54:28;76.90;;;47.67;;
57848;SDS011;68645;44.762;21.516;2023-12-28T06:56:54;92.38;;;53.20;;
57848;SDS011;68645;44.762;21.516;2023-12-28T06:59:20;91.05;;;49.13;;
57848;SDS011;68645;44.762;21.516;2023-12-28T07:01:46;58.72;;;35.45;;
57848;SDS011;68645;44.762;21.516;2023-12-28T07:04:13;48.95;;;27.20;;
57848;SDS011;68645;44.762;21.516;2023-12-28T07:06:39;44.55;;;29.77;;
57848;SDS011;68645;44.762;21.516;2023-12-28T07:09:05;50.50;;;31.40;;
57848;SDS011;68645;44.762;21.516;2023-12-28T07:11:31;36.72;;;25.30;;
57848;SDS011;68645;44.762;21.516;2023-12-28T07:13:58;38.67;;;27.13;;
57848;SDS011;68645;44.762;21.516;2023-12-28T07:16:24;41.67;;;31.17;;
57848;SDS011;68645;44.762;21.516;2023-12-28T07:18:51;26.50;;;19.33;;
57848;SDS011;68645;44.762;21.516;2023-12-28T07:21:17;28.52;;;21.33;;
57848;SDS011;68645;44.762;21.516;2023-12-28T07:23:44;34.15;;;24.27;;
57848;SDS011;68645;44.762;21.516;2023-12-28T07:26:14;39.40;;;26.15;;
57848;SDS011;68645;44.762;21.516;2023-12-28T07:28:40;32.83;;;22.02;;
57848;SDS011;68645;44.762;21.516;2023-12-28T07:31:08;40.55;;;28.15;;
57848;SDS011;68645;44.762;21.516;2023-12-28T07:33:34;40.17;;;27.50;;
57848;SDS011;68645;44.762;21.516;2023-12-28T07:36:00;39.67;;;25.08;;
57848;SDS011;68645;44.762;21.516;2023-12-28T07:38:31;35.23;;;24.37;;
57848;SDS011;68645;44.762;21.516;2023-12-28T07:40:57;36.50;;;22.73;;
57848;SDS011;68645;44.762;21.516;2023-12-28T07:43:24;36.95;;;23.80;;
57848;SDS011;68645;44.762;21.516;2023-12-28T07:45:50;41.72;;;25.17;;
57848;SDS011;68645;44.762;21.516;2023-12-28T07:48:16;41.17;;;24.63;;
57848;SDS011;68645;44.762;21.516;2023-12-28T07:50:42;42.78;;;26.98;;
57848;SDS011;68645;44.762;21.516;2023-12-28T07:53:08;47.17;;;29.52;;
57848;SDS011;68645;44.762;21.516;2023-12-28T07:55:34;31.52;;;21.08;;
57848;SDS011;68645;44.762;21.516;2023-12-28T07:58:00;37.22;;;25.73;;
57848;SDS011;68645;44.762;21.516;2023-12-28T08:00:26;27.08;;;18.65;;
57848;SDS011;68645;44.762;21.516;2023-12-28T08:02:53;31.42;;;23.70;;
57848;SDS011;68645;44.762;21.516;2023-12-28T08:05:19;29.30;;;22.73;;
57848;SDS011;68645;44.762;21.516;2023-12-28T08:07:45;31.73;;;25.17;;
57848;SDS011;68645;44.762;21.516;2023-12-28T08:10:11;39.70;;;33.17;;
57848;SDS011;68645;44.762;21.516;2023-12-28T08:12:37;36.35;;;28.10;;
57848;SDS011;68645;44.762;21.516;2023-12-28T08:15:04;32.58;;;25.77;;
57848;SDS011;68645;44.762;21.516;2023-12-28T08:17:30;28.90;;;21.02;;
57848;SDS011;68645;44.762;21.516;2023-12-28T08:19:56;22.38;;;15.57;;
57848;SDS011;68645;44.762;21.516;2023-12-28T08:22:23;25.48;;;18.65;;
57848;SDS011;68645;44.762;21.516;2023-12-28T08:24:49;22.10;;;16.92;;
57848;SDS011;68645;44.762;21.516;2023-12-28T08:27:15;22.35;;;17.02;;
57848;SDS011;68645;44.762;21.516;2023-12-28T08:29:41;23.23;;;17.98;;
57848;SDS011;68645;44.762;21.516;2023-12-28T08:32:07;24.63;;;19.27;;
57848;SDS011;68645;44.762;21.516;2023-12-28T08:34:33;26.15;;;20.55;;
57848;SDS011;68645;44.762;21.516;2023-12-28T08:37:00;24.75;;;19.80;;
57848;SDS011;68645;44.762;21.516;2023-12-28T08:39:26;27.63;;;19.80;;
57848;SDS011;68645;44.762;21.516;2023-12-28T08:41:52;32.92;;;26.70;;
57848;SDS011;68645;44.762;21.516;2023-12-28T08:44:18;34.50;;;27.35;;
57848;SDS011;68645;44.762;21.516;2023-12-28T08:46:45;39.03;;;29.88;;
57848;SDS011;68645;44.762;21.516;2023-12-28T08:49:11;35.88;;;26.95;;
57848;SDS011;68645;44.762;21.516;2023-12-28T08:51:37;34.97;;;28.30;;
57848;SDS011;68645;44.762;21.516;2023-12-28T08:54:03;32.55;;;26.10;;
57848;SDS011;68645;44.762;21.516;2023-12-28T08:56:29;30.35;;;22.30;;
57848;SDS011;68645;44.762;21.516;2023-12-28T08:58:55;24.00;;;18.40;;
57848;SDS011;68645;44.762;21.516;2023-12-28T09:01:22;22.98;;;16.80;;
57848;SDS011;68645;44.762;21.516;2023-12-28T09:03:49;18.05;;;13.77;;
57848;SDS011;68645;44.762;21.516;2023-12-28T09:11:09;26.07;;;15.83;;
57848;SDS011;68645;44.762;21.516;2023-12-28T09:13:36;23.65;;;14.73;;
57848;SDS011;68645;44.762;21.516;2023-12-28T09:16:03;22.27;;;15.73;;
57848;SDS011;68645;44.762;21.516;2023-12-28T09:18:29;23.17;;;17.80;;
57848;SDS011;68645;44.762;21.516;2023-12-28T09:20:55;24.95;;;17.75;;
57848;SDS011;68645;44.762;21.516;2023-12-28T09:23:21;25.43;;;20.87;;
57848;SDS011;68645;44.762;21.516;2023-12-28T09:25:47;22.98;;;20.48;;
57848;SDS011;68645;44.762;21.516;2023-12-28T09:28:14;28.08;;;21.98;;
57848;SDS011;68645;44.762;21.516;2023-12-28T09:30:40;35.83;;;26.27;;
57848;SDS011;68645;44.762;21.516;2023-12-28T09:33:06;36.88;;;26.88;;
57848;SDS011;68645;44.762;21.516;2023-12-28T09:35:33;36.58;;;27.67;;
57848;SDS011;68645;44.762;21.516;2023-12-28T09:37:59;37.85;;;31.30;;
57848;SDS011;68645;44.762;21.516;2023-12-28T09:40:25;48.88;;;36.30;;
57848;SDS011;68645;44.762;21.516;2023-12-28T09:45:29;72.00;;;48.40;;
57848;SDS011;68645;44.762;21.516;2023-12-28T09:47:56;56.40;;;39.88;;
57848;SDS011;68645;44.762;21.516;2023-12-28T09:50:22;33.47;;;28.00;;
57848;SDS011;68645;44.762;21.516;2023-12-28T09:52:52;33.15;;;25.52;;
57848;SDS011;68645;44.762;21.516;2023-12-28T09:55:18;32.40;;;25.88;;
57848;SDS011;68645;44.762;21.516;2023-12-28T09:57:45;45.88;;;35.00;;
57848;SDS011;68645;44.762;21.516;2023-12-28T10:00:12;56.60;;;40.33;;
57848;SDS011;68645;44.762;21.516;2023-12-28T10:02:41;49.15;;;37.63;;
57848;SDS011;68645;44.762;21.516;2023-12-28T10:05:13;43.00;;;31.60;;
57848;SDS011;68645;44.762;21.516;2023-12-28T10:07:40;35.60;;;28.50;;
57848;SDS011;68645;44.762;21.516;2023-12-28T10:10:07;31.70;;;24.08;;
57848;SDS011;68645;44.762;21.516;2023-12-28T10:12:34;34.17;;;26.13;;
57848;SDS011;68645;44.762;21.516;2023-12-28T10:15:00;41.45;;;26.05;;
57848;SDS011;68645;44.762;21.516;2023-12-28T10:17:27;45.45;;;28.25;;
57848;SDS011;68645;44.762;21.516;2023-12-28T10:19:53;31.85;;;22.15;;
57848;SDS011;68645;44.762;21.516;2023-12-28T10:22:21;30.00;;;21.30;;
57848;SDS011;68645;44.762;21.516;2023-12-28T10:24:47;37.25;;;26.67;;
57848;SDS011;68645;44.762;21.516;2023-12-28T10:27:13;29.70;;;23.20;;
57848;SDS011;68645;44.762;21.516;2023-12-28T10:29:40;31.98;;;23.00;;
57848;SDS011;68645;44.762;21.516;2023-12-28T10:32:06;31.20;;;22.48;;
57848;SDS011;68645;44.762;21.516;2023-12-28T10:34:33;36.85;;;25.90;;
57848;SDS011;68645;44.762;21.516;2023-12-28T10:36:59;37.13;;;25.75;;
57848;SDS011;68645;44.762;21.516;2023-12-28T10:39:27;34.97;;;25.45;;
57848;SDS011;68645;44.762;21.516;2023-12-28T10:41:55;32.03;;;22.55;;
57848;SDS011;68645;44.762;21.516;2023-12-28T10:44:21;23.60;;;18.33;;
57848;SDS011;68645;44.762;21.516;2023-12-28T10:46:50;18.73;;;14.02;;
57848;SDS011;68645;44.762;21.516;2023-12-28T10:49:20;34.60;;;24.17;;
57848;SDS011;68645;44.762;21.516;2023-12-28T10:59:50;73.00;;;44.08;;
57848;SDS011;68645;44.762;21.516;2023-12-28T11:02:20;66.47;;;39.63;;
57848;SDS011;68645;44.762;21.516;2023-12-28T11:04:50;47.10;;;32.40;;
57848;SDS011;68645;44.762;21.516;2023-12-28T11:07:18;28.30;;;17.93;;
57848;SDS011;68645;44.762;21.516;2023-12-28T11:09:44;13.75;;;9.32;;
57848;SDS011;68645;44.762;21.516;2023-12-28T11:14:40;8.77;;;5.67;;
57848;SDS011;68645;44.762;21.516;2023-12-28T11:17:06;11.52;;;6.57;;
57848;SDS011;68645;44.762;21.516;2023-12-28T11:19:33;11.02;;;6.57;;
57848;SDS011;68645;44.762;21.516;2023-12-28T11:22:01;9.07;;;6.35;;
57848;SDS011;68645;44.762;21.516;2023-12-28T11:24:27;10.13;;;5.75;;
57848;SDS011;68645;44.762;21.516;2023-12-28T11:26:54;11.90;;;8.40;;
57848;SDS011;68645;44.762;21.516;2023-12-28T11:29:21;10.30;;;5.15;;
57848;SDS011;68645;44.762;21.516;2023-12-28T11:31:53;8.55;;;5.53;;
57848;SDS011;68645;44.762;21.516;2023-12-28T11:34:26;13.35;;;8.05;;
57848;SDS011;68645;44.762;21.516;2023-12-28T11:36:54;10.30;;;7.05;;
57848;SDS011;68645;44.762;21.516;2023-12-28T11:42:07;9.30;;;6.13;;
57848;SDS011;68645;44.762;21.516;2023-12-28T11:44:37;16.00;;;8.30;;
57848;SDS011;68645;44.762;21.516;2023-12-28T11:47:13;13.88;;;7.90;;
57848;SDS011;68645;44.762;21.516;2023-12-28T11:49:40;10.50;;;6.50;;
57848;SDS011;68645;44.762;21.516;2023-12-28T11:52:06;18.13;;;10.82;;
57848;SDS011;68645;44.762;21.516;2023-12-28T11:54:33;11.63;;;7.43;;
57848;SDS011;68645;44.762;21.516;2023-12-28T11:56:59;10.32;;;5.75;;
57848;SDS011;68645;44.762;21.516;2023-12-28T11:59:25;15.73;;;11.02;;
57848;SDS011;68645;44.762;21.516;2023-12-28T12:01:52;9.77;;;5.90;;
57848;SDS011;68645;44.762;21.516;2023-12-28T12:04:18;11.75;;;5.35;;
57848;SDS011;68645;44.762;21.516;2023-12-28T12:06:45;11.52;;;6.90;;
57848;SDS011;68645;44.762;21.516;2023-12-28T12:09:15;15.15;;;6.55;;
57848;SDS011;68645;44.762;21.516;2023-12-28T12:11:43;10.60;;;6.65;;
57848;SDS011;68645;44.762;21.516;2023-12-28T12:14:09;8.75;;;5.82;;
57848;SDS011;68645;44.762;21.516;2023-12-28T12:16:36;12.25;;;8.02;;
57848;SDS011;68645;44.762;21.516;2023-12-28T12:19:05;7.93;;;5.47;;
57848;SDS011;68645;44.762;21.516;2023-12-28T12:21:34;13.30;;;8.40;;
57848;SDS011;68645;44.762;21.516;2023-12-28T12:24:00;9.45;;;6.28;;
57848;SDS011;68645;44.762;21.516;2023-12-28T12:26:28;11.45;;;6.65;;
57848;SDS011;68645;44.762;21.516;2023-12-28T12:31:24;10.75;;;5.68;;
57848;SDS011;68645;44.762;21.516;2023-12-28T12:33:51;10.75;;;6.72;;
57848;SDS011;68645;44.762;21.516;2023-12-28T12:36:17;10.95;;;6.20;;
57848;SDS011;68645;44.762;21.516;2023-12-28T12:38:44;14.00;;;8.20;;
57848;SDS011;68645;44.762;21.516;2023-12-28T12:41:10;18.13;;;11.85;;
57848;SDS011;68645;44.762;21.516;2023-12-28T12:43:37;20.58;;;12.15;;
57848;SDS011;68645;44.762;21.516;2023-12-28T12:46:03;17.90;;;13.32;;
57848;SDS011;68645;44.762;21.516;2023-12-28T12:48:30;23.05;;;15.52;;
57848;SDS011;68645;44.762;21.516;2023-12-28T12:50:56;28.88;;;16.92;;
57848;SDS011;68645;44.762;21.516;2023-12-28T12:53:22;21.35;;;16.00;;
57848;SDS011;68645;44.762;21.516;2023-12-28T12:55:48;23.48;;;14.70;;
57848;SDS011;68645;44.762;21.516;2023-12-28T12:58:19;20.33;;;12.88;;
57848;SDS011;68645;44.762;21.516;2023-12-28T13:00:47;30.98;;;24.52;;
57848;SDS011;68645;44.762;21.516;2023-12-28T13:03:13;21.73;;;13.68;;
57848;SDS011;68645;44.762;21.516;2023-12-28T13:05:39;15.10;;;8.77;;
57848;SDS011;68645;44.762;21.516;2023-12-28T13:08:09;21.90;;;11.60;;
57848;SDS011;68645;44.762;21.516;2023-12-28T13:10:35;28.63;;;14.07;;
57848;SDS011;68645;44.762;21.516;2023-12-28T13:13:01;28.27;;;14.20;;
57848;SDS011;68645;44.762;21.516;2023-12-28T13:15:27;14.13;;;10.40;;
57848;SDS011;68645;44.762;21.516;2023-12-28T13:17:54;11.85;;;7.60;;
57848;SDS011;68645;44.762;21.516;2023-12-28T13:20:20;15.95;;;11.32;;
57848;SDS011;68645;44.762;21.516;2023-12-28T13:22:46;21.33;;;14.20;;
57848;SDS011;68645;44.762;21.516;2023-12-28T13:25:12;13.57;;;8.63;;
57848;SDS011;68645;44.762;21.516;2023-12-28T13:27:38;27.02;;;11.65;;
57848;SDS011;68645;44.762;21.516;2023-12-28T13:30:05;24.63;;;11.73;;
57848;SDS011;68645;44.762;21.516;2023-12-28T13:32:31;15.20;;;9.35;;
57848;SDS011;68645;44.762;21.516;2023-12-28T13:34:57;16.27;;;10.38;;
57848;SDS011;68645;44.762;21.516;2023-12-28T13:37:23;23.63;;;12.10;;
57848;SDS011;68645;44.762;21.516;2023-12-28T13:39:50;19.58;;;9.73;;
57848;SDS011;68645;44.762;21.516;2023-12-28T13:42:16;26.55;;;12.55;;
57848;SDS011;68645;44.762;21.516;2023-12-28T13:44:42;24.02;;;11.60;;
57848;SDS011;68645;44.762;21.516;2023-12-28T13:47:09;17.58;;;10.25;;
57848;SDS011;68645;44.762;21.516;2023-12-28T13:49:35;25.80;;;19.58;;
57848;SDS011;68645;44.762;21.516;2023-12-28T13:52:01;20.15;;;14.43;;
57848;SDS011;68645;44.762;21.516;2023-12-28T13:54:27;25.88;;;17.83;;
57848;SDS011;68645;44.762;21.516;2023-12-28T13:56:54;18.42;;;12.90;;
57848;SDS011;68645;44.762;21.516;2023-12-28T13:59:23;26.00;;;16.15;;
57848;SDS011;68645;44.762;21.516;2023-12-28T14:01:50;13.43;;;8.82;;
57848;SDS011;68645;44.762;21.516;2023-12-28T14:04:16;20.13;;;13.25;;
57848;SDS011;68645;44.762;21.516;2023-12-28T14:06:42;27.88;;;17.13;;
57848;SDS011;68645;44.762;21.516;2023-12-28T14:09:08;25.38;;;14.90;;
57848;SDS011;68645;44.762;21.516;2023-12-28T14:11:35;19.13;;;12.23;;
57848;SDS011;68645;44.762;21.516;2023-12-28T14:14:01;19.88;;;13.68;;
57848;SDS011;68645;44.762;21.516;2023-12-28T14:16:27;21.05;;;13.27;;
57848;SDS011;68645;44.762;21.516;2023-12-28T14:18:53;17.98;;;10.40;;
57848;SDS011;68645;44.762;21.516;2023-12-28T14:21:19;17.23;;;11.23;;
57848;SDS011;68645;44.762;21.516;2023-12-28T14:23:46;17.33;;;11.75;;
57848;SDS011;68645;44.762;21.516;2023-12-28T14:26:13;19.95;;;11.25;;
57848;SDS011;68645;44.762;21.516;2023-12-28T14:28:42;45.95;;;23.17;;
57848;SDS011;68645;44.762;21.516;2023-12-28T14:31:09;59.40;;;34.10;;